createdAt,value
2019-04-11T00:01:44.975Z,4.20
2019-04-11T00:04:10.142Z,4.10
2019-04-11T00:06:41.438Z,4.00
2019-04-11T00:09:14.491Z,4.10
2019-04-11T00:11:44.750Z,4.00
2019-04-11T00:14:15.995Z,4.00
2019-04-11T00:16:46.239Z,4.00
2019-04-11T00:19:16.411Z,4.00
2019-04-11T00:21:47.005Z,4.00
2019-04-11T00:24:17.177Z,4.00
2019-04-11T00:26:48.602Z,4.00
2019-04-11T00:29:18.961Z,4.00
2019-04-11T00:31:49.851Z,3.90
2019-04-11T00:34:20.629Z,3.90
2019-04-11T00:36:52.472Z,3.80
2019-04-11T00:39:23.655Z,3.80
2019-04-11T00:41:54.418Z,3.80
2019-04-11T00:44:25.090Z,3.70
2019-04-11T00:46:56.342Z,3.60
2019-04-11T00:49:27.210Z,3.60
2019-04-11T00:51:58.306Z,3.50
2019-04-11T00:54:29.043Z,3.50
2019-04-11T00:56:59.478Z,3.50
2019-04-11T00:59:32.157Z,3.50
2019-04-11T01:02:03.642Z,3.40
2019-04-11T01:04:34.869Z,3.40
2019-04-11T01:07:05.232Z,3.40
2019-04-11T01:09:36.851Z,3.40
2019-04-11T01:12:08.072Z,3.40
2019-04-11T01:14:38.636Z,3.30
2019-04-11T01:17:10.344Z,3.30
2019-04-11T01:19:40.752Z,3.30
2019-04-11T01:22:11.481Z,3.30
2019-04-11T01:24:42.058Z,3.40
2019-04-11T01:27:12.527Z,3.40
2019-04-11T01:29:43.907Z,3.40
2019-04-11T01:32:15.956Z,3.30
2019-04-11T01:34:46.240Z,3.30
2019-04-11T01:37:17.589Z,3.30
2019-04-11T01:39:59.441Z,3.30
2019-04-11T01:42:31.243Z,3.20
2019-04-11T01:45:03.141Z,3.30
2019-04-11T01:47:49.670Z,3.30
2019-04-11T01:50:23.341Z,3.20
2019-04-11T01:52:54.893Z,3.20
2019-04-11T01:55:26.231Z,3.10
2019-04-11T01:57:56.640Z,3.00
2019-04-11T02:00:48.794Z,3.00
2019-04-11T02:03:26.016Z,3.00
2019-04-11T02:05:57.102Z,3.00
2019-04-11T02:08:27.375Z,2.90
2019-04-11T02:10:59.240Z,2.90
2019-04-11T02:13:32.153Z,2.90
2019-04-11T02:16:02.961Z,2.80
2019-04-11T02:18:35.213Z,2.80
2019-04-11T02:21:05.731Z,2.70
2019-04-11T02:23:53.092Z,2.70
2019-04-11T02:26:27.282Z,2.70
2019-04-11T02:28:59.403Z,2.70
2019-04-11T02:31:30.630Z,2.60
2019-04-11T02:34:02.465Z,2.70
2019-04-11T02:36:34.308Z,2.70
2019-04-11T02:39:16.137Z,2.70
2019-04-11T02:41:44.516Z,2.60
2019-04-11T02:44:32.064Z,2.50
2019-04-11T02:46:55.780Z,2.50
2019-04-11T02:49:19.521Z,2.50
2019-04-11T02:51:51.494Z,2.50
2019-04-11T02:54:25.852Z,2.40
2019-04-11T02:56:55.302Z,2.40
2019-04-11T02:59:27.322Z,2.30
2019-04-11T03:01:58.240Z,2.30
2019-04-11T03:04:30.837Z,2.20
2019-04-11T03:07:01.400Z,2.20
2019-04-11T03:09:31.829Z,2.00
2019-04-11T03:12:02.987Z,2.00
2019-04-11T03:14:54.477Z,2.10
2019-04-11T03:17:14.038Z,2.00
2019-04-11T03:19:53.615Z,1.90
2019-04-11T03:22:11.606Z,1.90
2019-04-11T03:24:42.951Z,1.90
2019-04-11T03:27:15.313Z,1.90
2019-04-11T03:29:46.977Z,1.80
2019-04-11T03:33:14.830Z,1.80
2019-04-11T03:35:34.842Z,1.80
2019-04-11T03:37:44.637Z,1.80
2019-04-11T03:40:13.167Z,1.80
2019-04-11T03:42:41.754Z,1.80
2019-04-11T03:45:20.928Z,1.80
2019-04-11T03:47:40.854Z,1.70
2019-04-11T03:50:08.521Z,1.70
2019-04-11T03:52:36.663Z,1.70
2019-04-11T03:55:08.631Z,1.70
2019-04-11T03:57:39.390Z,1.70
2019-04-11T04:00:12.718Z,1.60
2019-04-11T04:02:44.268Z,1.60
2019-04-11T04:05:15.351Z,1.60
2019-04-11T04:07:46.509Z,1.50
2019-04-11T04:10:19.873Z,1.60
2019-04-11T04:12:51.627Z,1.50
2019-04-11T04:15:54.028Z,1.60
2019-04-11T04:18:19.189Z,1.60
2019-04-11T04:21:17.445Z,1.50
2019-04-11T04:23:51.682Z,1.50
2019-04-11T04:26:22.840Z,1.60
2019-04-11T04:28:53.485Z,1.70
2019-04-11T04:31:24.435Z,1.60
2019-04-11T04:33:55.565Z,1.60
2019-04-11T04:36:28.839Z,1.60
2019-04-11T04:39:01.397Z,1.60
2019-04-11T04:41:41.408Z,1.60
2019-04-11T04:44:06.455Z,1.60
2019-04-11T04:46:52.730Z,1.70
2019-04-11T04:49:11.121Z,1.70
2019-04-11T04:51:43.539Z,1.70
2019-04-11T04:54:14.239Z,1.70
2019-04-11T04:56:47.363Z,1.70
2019-04-11T04:59:19.303Z,1.70
2019-04-11T05:01:50.846Z,1.70
2019-04-11T05:04:23.232Z,1.60
2019-04-11T05:06:55.085Z,1.60
2019-04-11T05:09:25.696Z,1.60
2019-04-11T05:11:56.403Z,1.60
2019-04-11T05:14:27.476Z,1.60
2019-04-11T05:16:58.122Z,1.60
2019-04-11T05:19:29.912Z,1.60
2019-04-11T05:22:00.357Z,1.60
2019-04-11T05:24:30.561Z,1.70
2019-04-11T05:27:00.935Z,1.60
2019-04-11T05:29:31.397Z,1.70
2019-04-11T05:32:01.611Z,1.70
2019-04-11T05:34:32.985Z,1.70
2019-04-11T05:37:03.965Z,1.80
2019-04-11T05:39:34.247Z,1.80
2019-04-11T05:42:05.086Z,1.90
2019-04-11T05:44:38.211Z,1.90
2019-04-11T05:47:08.900Z,2.00
2019-04-11T05:49:47.532Z,2.00
2019-04-11T05:52:17.858Z,2.00
2019-04-11T05:54:57.081Z,2.10
2019-04-11T05:57:34.235Z,2.20
2019-04-11T06:00:00.285Z,2.20
2019-04-11T06:02:51.094Z,2.30
2019-04-11T06:05:44.654Z,2.30
2019-04-11T06:08:22.454Z,2.40
2019-04-11T06:11:04.249Z,2.50
2019-04-11T06:13:49.096Z,2.60
2019-04-11T06:16:19.272Z,2.70
2019-04-11T06:19:08.080Z,2.90
2019-04-11T06:21:42.538Z,3.00
2019-04-11T06:24:30.451Z,3.10
2019-04-11T06:27:15.398Z,3.20
2019-04-11T06:30:05.409Z,3.30
2019-04-11T06:32:54.396Z,3.40
2019-04-11T06:35:35.887Z,3.50
2019-04-11T06:38:25.210Z,3.60
2019-04-11T06:41:08.397Z,3.70
2019-04-11T06:43:58.510Z,3.70
2019-04-11T06:46:49.639Z,3.80
2019-04-11T06:49:48.859Z,3.90
2019-04-11T06:52:20.879Z,4.00
2019-04-11T06:55:16.225Z,4.10
2019-04-11T06:57:48.065Z,4.10
2019-04-11T07:00:19.063Z,4.20
2019-04-11T07:02:55.079Z,4.30
2019-04-11T07:05:26.828Z,4.40
2019-04-11T07:07:57.838Z,4.50
2019-04-11T07:10:42.534Z,4.50
2019-04-11T07:13:26.026Z,4.70
2019-04-11T07:15:57.935Z,4.70
2019-04-11T07:18:53.140Z,4.80
2019-04-11T07:21:27.575Z,4.80
2019-04-11T07:24:16.080Z,4.80
2019-04-11T07:26:52.071Z,4.90
2019-04-11T07:30:00.076Z,5.00
2019-04-11T07:32:30.789Z,5.00
2019-04-11T07:35:19.375Z,5.10
2019-04-11T07:37:53.177Z,5.10
2019-04-11T07:40:41.321Z,5.20
2019-04-11T07:43:23.038Z,5.30
2019-04-11T07:46:25.406Z,5.50
2019-04-11T07:49:08.166Z,5.50
2019-04-11T07:51:45.536Z,5.50
2019-04-11T07:54:18.082Z,5.60
2019-04-11T07:56:55.133Z,5.70
2019-04-11T07:59:32.441Z,5.80
2019-04-11T08:02:21.384Z,6.00
2019-04-11T08:05:11.076Z,6.00
2019-04-11T08:07:51.505Z,6.10
2019-04-11T08:10:29.380Z,6.30
2019-04-11T08:13:01.857Z,6.40
2019-04-11T08:15:57.897Z,6.40
2019-04-11T08:18:48.725Z,6.40
2019-04-11T08:21:37.289Z,6.60
2019-04-11T08:24:11.996Z,6.60
2019-04-11T08:27:04.310Z,6.70
2019-04-11T08:29:34.533Z,6.80
2019-04-11T08:32:23.672Z,7.00
2019-04-11T08:35:03.959Z,7.10
2019-04-11T08:37:52.175Z,7.30
2019-04-11T08:40:22.489Z,7.40
2019-04-11T08:43:15.061Z,7.40
2019-04-11T08:45:50.636Z,7.40
2019-04-11T08:48:22.192Z,7.50
2019-04-11T08:50:56.197Z,7.40
2019-04-11T08:53:44.821Z,7.40
2019-04-11T08:56:15.729Z,7.70
2019-04-11T08:59:35.983Z,7.70
2019-04-11T09:02:07.024Z,7.90
2019-04-11T09:05:08.469Z,8.20
2019-04-11T09:07:36.012Z,8.40
2019-04-11T09:10:24.182Z,8.90
2019-04-11T09:13:00.617Z,9.40
2019-04-11T09:15:49.153Z,9.70
2019-04-11T09:18:19.675Z,10.10
2019-04-11T09:21:07.877Z,10.90
2019-04-11T09:23:38.279Z,11.20
2019-04-11T09:26:25.723Z,11.50
2019-04-11T09:28:57.889Z,11.50
2019-04-11T09:31:45.397Z,11.40
2019-04-11T09:34:44.072Z,11.90
2019-04-11T09:37:29.418Z,12.70
2019-04-11T09:40:12.281Z,13.20
2019-04-11T09:43:07.573Z,13.50
2019-04-11T09:46:03.848Z,13.90
2019-04-11T09:48:53.820Z,14.00
2019-04-11T09:51:45.759Z,14.10
2019-04-11T09:54:52.763Z,14.70
2019-04-11T09:57:29.739Z,15.30
2019-04-11T10:00:24.727Z,15.10
2019-04-11T10:03:21.487Z,14.80
2019-04-11T10:06:19.710Z,15.10
2019-04-11T10:08:53.754Z,15.30
2019-04-11T10:11:55.195Z,15.00
2019-04-11T10:14:27.562Z,15.30
2019-04-11T10:17:16.844Z,15.50
2019-04-11T10:19:54.278Z,14.90
2019-04-11T10:22:49.390Z,14.40
2019-04-11T10:25:39.193Z,14.70
2019-04-11T10:28:29.574Z,15.20
2019-04-11T10:31:12.661Z,16.20
2019-04-11T10:34:07.049Z,16.70
2019-04-11T10:36:47.578Z,16.70
2019-04-11T10:39:37.544Z,16.40
2019-04-11T10:42:10.553Z,16.40
2019-04-11T10:44:58.688Z,16.00
2019-04-11T10:47:31.216Z,15.60
2019-04-11T10:50:21.691Z,16.20
2019-04-11T10:52:55.097Z,16.70
2019-04-11T10:55:57.862Z,17.70
2019-04-11T10:58:36.990Z,18.10
2019-04-11T11:01:25.587Z,17.60
2019-04-11T11:04:31.016Z,17.40
2019-04-11T11:07:11.413Z,18.40
2019-04-11T11:09:50.462Z,18.80
2019-04-11T11:12:41.503Z,18.40
2019-04-11T11:15:19.820Z,17.40
2019-04-11T11:18:35.213Z,17.90
2019-04-11T11:20:55.120Z,18.20
2019-04-11T11:23:39.273Z,16.60
2019-04-11T11:26:12.628Z,17.00
2019-04-11T11:29:00.446Z,17.60
2019-04-11T11:31:40.800Z,16.10
2019-04-11T11:34:19.290Z,16.70
2019-04-11T11:37:05.180Z,17.60
2019-04-11T11:39:53.181Z,18.30
2019-04-11T11:42:54.666Z,16.60
2019-04-11T11:45:56.319Z,15.40
2019-04-11T11:48:46.271Z,16.70
2019-04-11T11:51:25.653Z,18.00
2019-04-11T11:54:13.508Z,18.80
2019-04-11T11:56:47.240Z,19.10
2019-04-11T11:59:25.111Z,17.60
2019-04-11T12:01:58.530Z,17.40
2019-04-11T12:04:48.539Z,18.20
2019-04-11T12:07:21.105Z,18.20
2019-04-11T12:10:11.249Z,17.10
2019-04-11T12:12:49.314Z,17.20
2019-04-11T12:15:41.806Z,18.60
2019-04-11T12:18:30.080Z,19.10
2019-04-11T12:21:03.355Z,20.60
2019-04-11T12:24:11.449Z,20.30
2019-04-11T12:26:50.195Z,21.10
2019-04-11T12:29:46.360Z,18.40
2019-04-11T12:32:16.671Z,19.30
2019-04-11T12:34:59.852Z,19.30
2019-04-11T12:37:35.868Z,18.10
2019-04-11T12:40:24.243Z,17.60
2019-04-11T12:42:56.160Z,18.00
2019-04-11T12:45:50.734Z,17.50
2019-04-11T12:48:23.323Z,17.40
2019-04-11T12:51:12.475Z,17.40
2019-04-11T12:53:44.808Z,17.90
2019-04-11T12:56:32.697Z,18.80
2019-04-11T12:59:16.555Z,19.70
2019-04-11T13:02:04.392Z,19.20
2019-04-11T13:04:37.034Z,19.40
2019-04-11T13:07:35.568Z,19.60
2019-04-11T13:10:29.945Z,18.80
2019-04-11T13:13:19.533Z,17.10
2019-04-11T13:16:12.178Z,18.60
2019-04-11T13:18:59.900Z,19.00
2019-04-11T13:21:49.133Z,19.60
2019-04-11T13:24:29.210Z,19.10
2019-04-11T13:27:12.909Z,18.80
2019-04-11T13:30:05.424Z,20.10
2019-04-11T13:32:55.444Z,21.30
2019-04-11T13:35:43.623Z,19.90
2019-04-11T13:38:17.407Z,20.90
2019-04-11T13:41:06.676Z,19.50
2019-04-11T13:43:45.280Z,18.40
2019-04-11T13:46:34.765Z,18.90
2019-04-11T13:49:30.675Z,19.70
2019-04-11T13:52:19.792Z,19.40
2019-04-11T13:55:07.665Z,19.10
2019-04-11T13:57:56.822Z,19.00
2019-04-11T14:00:45.325Z,19.50
2019-04-11T14:03:43.885Z,18.30
2019-04-11T14:06:37.169Z,18.40
2019-04-11T14:09:22.789Z,19.60
2019-04-11T14:12:00.151Z,19.50
2019-04-11T14:14:38.690Z,20.20
2019-04-11T14:17:16.377Z,20.90
2019-04-11T14:20:29.143Z,20.80
2019-04-11T14:23:14.708Z,19.90
2019-04-11T14:26:06.825Z,19.70
2019-04-11T14:28:43.045Z,19.60
2019-04-11T14:31:31.293Z,19.60
2019-04-11T14:34:10.314Z,19.30
2019-04-11T14:37:08.554Z,19.60
2019-04-11T14:39:41.494Z,19.00
2019-04-11T14:42:36.797Z,18.50
2019-04-11T14:45:17.444Z,18.60
2019-04-11T14:48:07.970Z,18.90
2019-04-11T14:50:56.725Z,19.10
2019-04-11T14:53:33.930Z,19.50
2019-04-11T14:56:06.615Z,19.70
2019-04-11T14:58:58.772Z,19.70
2019-04-11T15:01:29.283Z,20.40
2019-04-11T15:04:21.230Z,19.40
2019-04-11T15:06:53.480Z,19.50
2019-04-11T15:09:37.808Z,19.50
2019-04-11T15:12:17.939Z,19.40
2019-04-11T15:15:16.589Z,18.80
2019-04-11T15:17:50.881Z,18.10
2019-04-11T15:20:29.304Z,17.80
2019-04-11T15:23:06.737Z,17.60
2019-04-11T15:26:07.903Z,18.90
2019-04-11T15:28:43.724Z,18.70
2019-04-11T15:31:39.076Z,18.20
2019-04-11T15:34:12.188Z,17.90
2019-04-11T15:36:46.908Z,17.90
2019-04-11T15:39:44.034Z,18.50
2019-04-11T15:42:09.981Z,18.10
2019-04-11T15:44:55.845Z,17.30
2019-04-11T15:47:26.182Z,17.20
2019-04-11T15:54:13.029Z,16.80
2019-04-11T15:57:12.243Z,14.30
2019-04-11T15:59:59.774Z,13.30
2019-04-11T16:02:49.003Z,12.70
2019-04-11T16:05:48.123Z,12.50
2019-04-11T16:08:38.749Z,12.50
2019-04-11T16:11:42.864Z,12.50
2019-04-11T16:14:23.818Z,12.20
2019-04-11T16:17:13.320Z,12.00
2019-04-11T16:48:14.747Z,12.50
2019-04-11T16:50:45.278Z,12.40
2019-04-11T16:53:15.807Z,12.70
2019-04-11T16:55:46.046Z,12.60
2019-04-11T16:58:19.508Z,12.40
2019-04-11T17:00:52.073Z,12.40
2019-04-11T17:09:44.338Z,12.40
2019-04-11T17:12:14.930Z,11.80
2019-04-11T17:17:48.963Z,10.80
2019-04-11T17:20:19.158Z,10.50
2019-04-11T17:22:49.375Z,10.30
2019-04-11T17:39:24.036Z,9.80
2019-04-11T17:41:54.245Z,9.70
2019-04-11T17:44:24.774Z,9.70
2019-04-11T17:46:56.779Z,9.60
2019-04-11T17:49:26.849Z,9.50
2019-04-11T17:51:57.357Z,9.50
2019-04-11T17:54:27.635Z,9.40
2019-04-11T17:56:59.154Z,9.30
2019-04-11T17:59:29.691Z,9.20
2019-04-11T18:02:00.852Z,9.20
2019-04-11T18:04:31.486Z,9.10
2019-04-11T18:07:01.768Z,9.00
2019-04-11T18:09:31.942Z,8.90
2019-04-11T18:12:02.149Z,8.80
2019-04-11T18:14:32.419Z,8.80
2019-04-11T18:17:04.639Z,8.70
2019-04-11T18:19:36.257Z,8.60
2019-04-11T18:22:13.101Z,8.60
2019-04-11T18:24:40.471Z,8.50
2019-04-11T18:27:10.986Z,8.40
2019-04-11T18:29:41.179Z,8.30
2019-04-11T18:32:11.563Z,8.20
2019-04-11T18:34:41.906Z,8.20
2019-04-11T18:37:12.497Z,8.10
2019-04-11T18:39:42.683Z,8.00
2019-04-11T18:42:14.004Z,7.90
2019-04-11T18:44:44.631Z,7.80
2019-04-11T18:47:15.491Z,7.70
2019-04-11T18:49:45.620Z,7.70
2019-04-11T18:52:19.851Z,7.60
2019-04-11T18:54:49.614Z,7.50
2019-04-11T18:57:20.217Z,7.40
2019-04-11T18:59:50.757Z,7.40
2019-04-11T19:02:21.169Z,7.40
2019-04-11T19:04:51.681Z,7.30
2019-04-11T19:07:27.612Z,7.20
2019-04-11T19:09:53.756Z,7.20
2019-04-11T19:12:24.373Z,7.10
2019-04-11T19:14:54.914Z,7.10
2019-04-11T19:17:25.854Z,7.00
2019-04-11T19:19:56.096Z,6.90
2019-04-11T19:22:37.064Z,6.90
2019-04-11T19:24:58.520Z,6.80
2019-04-11T19:27:28.726Z,6.70
2019-04-11T19:29:59.427Z,6.70
2019-04-11T19:32:29.823Z,6.70
2019-04-11T19:35:00.393Z,6.70
2019-04-11T19:37:30.579Z,6.60
2019-04-11T19:40:00.764Z,6.60
2019-04-11T19:42:31.049Z,6.60
2019-04-11T19:45:02.912Z,6.60
2019-04-11T19:47:34.395Z,6.60
2019-04-11T19:50:05.707Z,6.60
2019-04-11T19:52:45.132Z,6.60
2019-04-11T19:55:30.005Z,6.50
2019-04-11T19:58:00.925Z,6.60
2019-04-11T20:00:31.807Z,6.60
2019-04-11T20:03:02.016Z,6.60
2019-04-11T20:05:32.280Z,6.60
2019-04-11T20:08:02.884Z,6.50
2019-04-11T20:10:33.200Z,6.50
2019-04-11T20:13:03.994Z,6.50
2019-04-11T20:15:37.274Z,6.40
2019-04-11T20:18:06.113Z,6.40
2019-04-11T20:20:37.045Z,6.30
2019-04-11T20:23:10.540Z,6.20
2019-04-11T20:25:41.146Z,6.20
2019-04-11T20:28:11.717Z,6.20
2019-04-11T20:30:41.876Z,6.10
2019-04-11T20:33:12.115Z,6.10
2019-04-11T20:35:42.284Z,6.10
2019-04-11T20:38:15.944Z,6.10
2019-04-11T20:40:44.368Z,6.00
2019-04-11T20:43:14.573Z,5.90
2019-04-11T20:45:45.557Z,5.80
2019-04-11T20:48:16.159Z,5.80
2019-04-11T20:50:46.367Z,5.80
2019-04-11T20:53:16.598Z,5.80
2019-04-11T20:55:47.207Z,5.70
2019-04-11T20:58:26.734Z,5.70
2019-04-11T21:00:53.475Z,5.70
2019-04-11T21:03:21.572Z,5.60
2019-04-11T21:05:51.761Z,5.60
2019-04-11T21:08:22.054Z,5.60
2019-04-11T21:10:52.599Z,5.50
2019-04-11T21:13:23.213Z,5.50
2019-04-11T21:15:53.665Z,5.40
2019-04-11T21:18:25.822Z,5.30
2019-04-11T21:20:55.890Z,5.30
2019-04-11T21:23:29.475Z,5.30
2019-04-11T21:25:59.087Z,5.30
2019-04-11T21:28:30.369Z,5.20
2019-04-11T21:31:01.169Z,5.20
2019-04-11T21:33:34.132Z,5.10
2019-04-11T21:36:04.566Z,5.20
2019-04-11T21:38:34.787Z,5.10
2019-04-11T21:41:06.104Z,5.10
2019-04-11T21:43:36.951Z,5.00
2019-04-11T21:46:08.269Z,5.00
2019-04-11T21:48:38.877Z,5.00
2019-04-11T21:51:11.395Z,4.90
2019-04-11T21:53:44.526Z,4.80
2019-04-11T21:56:15.956Z,4.70
2019-04-11T21:58:49.920Z,4.70
2019-04-11T22:01:22.014Z,4.60
2019-04-11T22:03:57.692Z,4.60
2019-04-11T22:06:30.071Z,4.50
2019-04-11T22:08:59.144Z,4.50
2019-04-11T22:11:29.918Z,4.40
2019-04-11T22:14:00.484Z,4.30
2019-04-11T22:16:30.683Z,4.40
2019-04-11T22:19:01.330Z,4.40
2019-04-11T22:21:31.645Z,4.40
2019-04-11T22:24:01.861Z,4.40
2019-04-11T22:26:33.223Z,4.40
2019-04-11T22:29:03.829Z,4.30
2019-04-11T22:31:34.064Z,4.30
2019-04-11T22:34:25.961Z,4.30
2019-04-11T22:36:59.609Z,4.30
2019-04-11T22:39:31.458Z,4.20
2019-04-11T22:42:01.825Z,4.10
2019-04-11T22:44:32.031Z,4.10
2019-04-11T22:47:02.269Z,4.00
2019-04-11T22:49:32.738Z,3.90
2019-04-11T22:52:04.030Z,4.00
2019-04-11T22:54:34.221Z,4.00
2019-04-11T22:57:04.485Z,4.00
2019-04-11T22:59:34.725Z,4.00
2019-04-11T23:02:16.857Z,4.00
2019-04-11T23:04:47.070Z,4.10
2019-04-11T23:07:18.543Z,4.10
2019-04-11T23:09:49.561Z,4.10
2019-04-11T23:12:21.196Z,4.00
2019-04-11T23:14:51.416Z,3.80
2019-04-11T23:17:21.668Z,3.90
2019-04-11T23:19:53.309Z,3.80
2019-04-11T23:22:23.904Z,3.70
2019-04-11T23:24:54.180Z,3.60
2019-04-11T23:27:24.782Z,3.60
2019-04-11T23:29:54.974Z,3.50
2019-04-11T23:32:25.192Z,3.40
2019-04-11T23:34:55.738Z,3.40
2019-04-11T23:37:26.286Z,3.40
2019-04-11T23:39:56.479Z,3.40
2019-04-11T23:42:26.695Z,3.30
2019-04-11T23:44:56.862Z,3.20
2019-04-11T23:47:27.382Z,3.10
2019-04-11T23:49:57.581Z,3.00
2019-04-11T23:52:28.165Z,2.90
2019-04-11T23:55:00.500Z,2.80
2019-04-11T23:57:31.206Z,2.80
